NZWN/WLG METAR and TAF weather

Enter ICAO airport designator
Station Type Date Time Source
NZWN METAR 2020/09/27 17:30 UTC NOAA

NZWN 271730Z AUTO 30008KT 240V360 9999 FEW065/// 11/01 Q0997 BECMG 33020KT


Station Type Date Time Source
NZWN Decoded METAR 2020/09/27 17:30 UTC NOAA

Wellington Airport, New Zealand (NZWN) 41-20S 174-48E 8M
Sep 27, 2020 - 01:30 PM EDT / 2020.09.27 1730 UTC
Wind: from the WNW (300 degrees) at 9 MPH (8 KT) (direction variable):0
Visibility: greater than 7 mile(s):0
Sky conditions: mostly clear
Temperature: 51 F (11 C)
Dew Point: 33 F (1 C)
Relative Humidity: 50%
Pressure (altimeter): 29.44 in. Hg (0997 hPa)
ob: NZWN 271730Z AUTO 30008KT 240V360 9999 FEW065/// 11/01 Q0997 BECMG 33020KT
cycle: 17

Station Type Date Time Source
NZWN TAF 2020/09/27 18:12 UTC NOAA

TAF NZWN 271709Z 2718/2818 34012KT 9999 -SHRA BKN030
BECMG 2718/2720 34020G30KT
BECMG 2800/2802 34030G50KT
TEMPO 2804/2808 5000 SHRA
BECMG 2807/2809 34015G25KT

Example: see airport list